Time;durP1;ratioP1;P1;durP2;ratioP2;P2;SDS_P1;SDS_P2;PMS_P1;PMS_P2;Temp;Humidity;BMP_temperature;BMP_pressure;BME280_temperature;BME280_humidity;BME280_pressure;Samples;Min_cycle;Max_cycle;Signal;HPM_P1;HPM_P2
2024/02/14 00:00:41;;;;;;;4.75;2.80;;;;;;;-146.25;100.00;52672.34;2071446;28;20184;-62
2024/02/14 00:01:43;;;;;;;5.22;3.13;;;;;;;-146.25;100.00;52650.03;2071735;28;29874;-63
2024/02/14 00:02:49;;;;;;;6.00;2.88;;;;;;;-146.25;100.00;52650.03;2079676;28;37307;-63
2024/02/14 00:03:50;;;;;;;7.50;3.33;;;;;;;-146.25;100.00;52674.38;2072065;28;20049;-63
2024/02/14 00:04:53;;;;;;;8.50;3.47;;;;;;;-146.25;100.00;52650.03;2072037;28;34294;-63
2024/02/14 00:05:57;;;;;;;7.40;3.33;;;;;;;-146.25;100.00;52700.72;2079736;28;35587;-64
2024/02/14 00:07:00;;;;;;;7.38;3.40;;;;;;;-146.25;100.00;52688.56;2080465;28;20038;-63
2024/02/14 00:08:03;;;;;;;8.77;3.58;;;;;;;-146.25;100.00;52704.78;2080089;28;36431;-63
2024/02/14 00:09:06;;;;;;;10.65;3.80;;;;;;;-146.25;100.00;52670.31;2079569;28;36397;-63
2024/02/14 00:10:09;;;;;;;9.02;3.83;;;;;;;-146.25;100.00;52664.22;2079924;28;35393;-64
2024/02/14 00:11:11;;;;;;;7.90;4.10;;;;;;;-146.25;100.00;52680.47;2079566;28;34044;-63
2024/02/14 00:12:13;;;;;;;7.13;4.03;;;;;;;-146.25;100.00;52680.47;2079199;28;36334;-64
2024/02/14 00:13:18;;;;;;;5.57;3.63;;;;;;;-146.25;100.00;52664.22;2080192;28;20053;-64
2024/02/14 00:14:20;;;;;;;6.15;3.47;;;;;;;-146.25;100.00;52662.22;2078788;28;34904;-63
2024/02/14 00:15:22;;;;;;;9.52;4.35;;;;;;;-146.25;100.00;52668.28;2080009;28;20128;-64
2024/02/14 00:16:23;;;;;;;7.93;4.68;;;;;;;-146.25;100.00;52656.13;2079941;28;33178;-63
2024/02/14 00:17:25;;;;;;;9.60;4.28;;;;;;;-146.25;100.00;52650.03;2079840;28;25499;-63
2024/02/14 00:18:27;;;;;;;7.43;4.57;;;;;;;-146.25;100.00;52700.72;2080030;28;36980;-63
2024/02/14 00:19:29;;;;;;;8.18;4.30;;;;;;;-146.25;100.00;52676.41;2070843;28;35167;-63
2024/02/14 00:20:32;;;;;;;8.18;4.80;;;;;;;-146.25;100.00;52643.97;2071221;28;32771;-63
2024/02/14 00:21:36;;;;;;;7.68;4.85;;;;;;;-146.25;100.00;52680.47;2070853;28;37869;-63
2024/02/14 00:22:39;;;;;;;9.18;4.70;;;;;;;-146.25;100.00;52668.28;2071880;28;30804;-64
2024/02/14 00:23:41;;;;;;;8.80;4.60;;;;;;;-146.25;100.00;52686.53;2080114;28;20100;-63
2024/02/14 00:24:42;;;;;;;9.93;4.55;;;;;;;-146.25;100.00;52641.94;2080063;28;33494;-63
2024/02/14 00:25:44;;;;;;;8.95;5.05;;;;;;;-146.25;100.00;52688.56;2080518;28;20165;-63
2024/02/14 00:26:46;;;;;;;9.45;4.80;;;;;;;-146.25;100.00;52656.13;2079049;28;36836;-64
2024/02/14 00:27:50;;;;;;;8.35;4.50;;;;;;;-146.25;100.00;52662.22;2079487;28;20050;-63
2024/02/14 00:28:52;;;;;;;7.50;5.18;;;;;;;-146.25;100.00;52668.28;2080083;28;34031;-64
2024/02/14 00:29:53;;;;;;;8.88;5.28;;;;;;;-146.25;100.00;52678.44;2079341;28;32041;-64
2024/02/14 00:30:56;;;;;;;7.47;5.18;;;;;;;-146.25;100.00;52676.41;2071737;28;20096;-64
2024/02/14 00:31:57;;;;;;;8.75;5.00;;;;;;;-146.25;100.00;52648.00;2071789;28;34330;-63
2024/02/14 00:32:59;;;;;;;8.52;5.63;;;;;;;-146.25;100.00;52716.97;2079869;28;34541;-64
2024/02/14 00:34:01;;;;;;;7.32;5.35;;;;;;;-146.25;100.00;52676.41;2080794;28;20096;-64
2024/02/14 00:35:07;;;;;;;9.55;5.65;;;;;;;-146.25;100.00;52639.91;2079849;28;35682;-64
2024/02/14 00:36:09;;;;;;;10.63;5.47;;;;;;;-146.25;100.00;52635.84;2078740;28;34614;-64
2024/02/14 00:37:11;;;;;;;7.70;5.85;;;;;;;-146.25;100.00;52658.16;2079684;28;20164;-64
2024/02/14 00:38:13;;;;;;;8.40;5.20;;;;;;;-146.25;100.00;52678.44;2079885;28;36229;-64
2024/02/14 00:39:14;;;;;;;8.55;5.88;;;;;;;-146.25;100.00;52680.47;2079784;28;32136;-64
2024/02/14 00:40:19;;;;;;;10.90;5.93;;;;;;;-146.25;100.00;52658.16;2080672;28;20164;-64
2024/02/14 00:41:21;;;;;;;8.80;5.90;;;;;;;-146.25;100.00;52674.38;2079281;28;35790;-63
2024/02/14 00:42:22;;;;;;;9.18;6.28;;;;;;;-146.25;100.00;52692.63;2079774;28;35716;-63
2024/02/14 00:43:24;;;;;;;8.70;6.00;;;;;;;-146.25;100.00;52648.00;2071529;28;20046;-63
2024/02/14 00:44:26;;;;;;;8.45;6.07;;;;;;;-146.25;100.00;52664.22;2070747;28;34844;-64
2024/02/14 00:45:27;;;;;;;9.73;6.35;;;;;;;-146.25;100.00;52627.75;2079702;28;38317;-63
2024/02/14 00:46:30;;;;;;;8.43;6.32;;;;;;;-146.25;100.00;52641.94;2079575;28;33881;-63
2024/02/14 00:47:35;;;;;;;8.65;6.55;;;;;;;-146.25;100.00;52686.53;2079762;28;36890;-63
2024/02/14 00:48:37;;;;;;;10.45;6.90;;;;;;;-146.25;100.00;52641.94;2070823;28;32220;-62
2024/02/14 00:49:39;;;;;;;10.30;6.80;;;;;;;-146.25;100.00;52672.34;2071791;28;20864;-63
2024/02/14 00:50:41;;;;;;;12.45;7.38;;;;;;;-146.25;100.00;52639.91;2079339;28;35862;-64
2024/02/14 00:51:43;;;;;;;9.57;6.72;;;;;;;-146.25;100.00;52672.34;2080014;28;33957;-63
2024/02/14 00:52:44;;;;;;;12.60;7.50;;;;;;;-146.25;100.00;52654.09;2079634;28;31940;-63
2024/02/14 00:53:46;;;;;;;12.15;7.07;;;;;;;-146.25;100.00;52696.69;2080352;28;23444;-63
2024/02/14 00:54:48;;;;;;;12.00;7.65;;;;;;;-146.25;100.00;52643.97;2079706;28;32986;-63
2024/02/14 00:55:50;;;;;;;12.65;8.10;;;;;;;-146.25;100.00;52680.47;2079515;28;32131;-64
2024/02/14 00:56:51;;;;;;;10.90;7.95;;;;;;;-146.25;100.00;52654.09;2079971;28;35600;-63
2024/02/14 00:57:54;;;;;;;9.43;8.00;;;;;;;-146.25;100.00;52656.13;2080414;28;20049;-64
2024/02/14 00:58:56;;;;;;;10.02;8.10;;;;;;;-146.25;100.00;52680.47;2079274;28;36725;-64
2024/02/14 01:00:00;;;;;;;12.88;8.90;;;;;;;-146.25;100.00;52623.69;2079412;28;30709;-64
2024/02/14 01:01:05;;;;;;;13.20;8.30;;;;;;;-146.25;100.00;52662.22;2079656;28;31871;-63
2024/02/14 01:02:09;;;;;;;11.77;8.23;;;;;;;-146.25;100.00;52648.00;2079551;28;35557;-63
2024/02/14 01:03:12;;;;;;;11.15;8.43;;;;;;;-146.25;100.00;52633.81;2079552;28;20789;-63
2024/02/14 01:04:14;;;;;;;11.30;8.50;;;;;;;-146.25;100.00;52645.97;2079400;28;39016;-63
2024/02/14 01:05:16;;;;;;;12.73;8.50;;;;;;;-146.25;100.00;52658.16;2079641;28;35869;-64
2024/02/14 01:06:19;;;;;;;12.07;8.32;;;;;;;-146.25;100.00;52680.47;2080268;28;20171;-63
2024/02/14 01:07:21;;;;;;;14.68;9.10;;;;;;;-146.25;100.00;52662.22;2070815;28;35915;-64
2024/02/14 01:08:23;;;;;;;15.05;8.57;;;;;;;-146.25;100.00;52678.44;2071769;28;20057;-63
2024/02/14 01:09:26;;;;;;;15.65;8.80;;;;;;;-146.25;100.00;52650.03;2079751;28;20907;-63
2024/02/14 01:10:28;;;;;;;13.20;9.10;;;;;;;-146.25;100.00;52668.28;2079952;28;36399;-64
2024/02/14 01:11:30;;;;;;;14.45;8.40;;;;;;;-146.25;100.00;52654.09;2079382;28;28597;-63
2024/02/14 01:12:32;;;;;;;14.45;8.77;;;;;;;-146.25;100.00;52656.13;2080340;28;20967;-63
2024/02/14 01:13:34;;;;;;;12.80;9.98;;;;;;;-146.25;100.00;52684.50;2080107;28;20034;-63
2024/02/14 01:14:36;;;;;;;15.32;8.43;;;;;;;-146.25;100.00;52696.69;2079173;28;28155;-64
2024/02/14 01:15:38;;;;;;;13.50;9.25;;;;;;;-146.25;100.00;52637.88;2079628;28;31518;-63
2024/02/14 01:16:44;;;;;;;12.30;9.07;;;;;;;-146.25;100.00;52712.91;2079320;28;35153;-63
2024/02/14 01:17:48;;;;;;;14.27;9.18;;;;;;;-146.25;100.00;52637.88;2079187;28;35123;-63
2024/02/14 01:18:52;;;;;;;12.68;9.35;;;;;;;-146.25;100.00;52645.97;2079333;28;31822;-63
2024/02/14 01:19:54;;;;;;;11.20;8.88;;;;;;;-146.25;100.00;52660.19;2079870;28;20080;-63
2024/02/14 01:20:58;;;;;;;11.18;8.60;;;;;;;-146.25;100.00;52639.91;2079117;28;36579;-64
2024/02/14 01:22:00;;;;;;;16.17;9.05;;;;;;;-146.25;100.00;52650.03;2079092;28;34274;-63
2024/02/14 01:23:02;;;;;;;10.77;8.40;;;;;;;-146.25;100.00;52623.69;2079811;28;34011;-63
2024/02/14 01:24:09;;;;;;;12.80;9.48;;;;;;;-146.25;100.00;52684.50;2080064;28;20979;-64
2024/02/14 01:25:11;;;;;;;12.50;9.50;;;;;;;-146.25;100.00;52627.75;2079674;28;20050;-63
2024/02/14 01:26:15;;;;;;;12.45;9.38;;;;;;;-146.25;100.00;52641.94;2079863;28;20034;-62
2024/02/14 01:27:18;;;;;;;16.52;9.57;;;;;;;-146.25;100.00;52662.22;2079804;28;30707;-62
2024/02/14 01:28:20;;;;;;;15.00;9.15;;;;;;;-146.25;100.00;52623.69;2079835;28;20053;-62
2024/02/14 01:29:23;;;;;;;15.55;10.02;;;;;;;-146.25;100.00;52672.34;2070530;28;35894;-62
2024/02/14 01:30:27;;;;;;;12.23;9.40;;;;;;;-146.25;100.00;52615.56;2062518;28;34541;-62
2024/02/14 01:31:29;;;;;;;13.68;9.38;;;;;;;-146.25;100.00;52660.19;2071921;28;20041;-62
2024/02/14 01:32:33;;;;;;;13.95;9.07;;;;;;;-146.25;100.00;52674.38;2079237;28;34804;-62
2024/02/14 01:33:35;;;;;;;12.85;9.60;;;;;;;-146.25;100.00;52617.59;2079370;28;33715;-62
2024/02/14 01:34:37;;;;;;;14.27;9.63;;;;;;;-146.25;100.00;52641.94;2080024;28;20081;-62
2024/02/14 01:35:39;;;;;;;14.57;9.20;;;;;;;-146.25;100.00;52645.97;2079329;28;35025;-62
2024/02/14 01:36:41;;;;;;;13.23;9.07;;;;;;;-146.25;100.00;52672.34;2078981;28;33656;-62
2024/02/14 01:37:44;;;;;;;12.93;9.20;;;;;;;-146.25;100.00;52678.44;2080222;28;20161;-62
2024/02/14 01:38:46;;;;;;;14.88;8.93;;;;;;;-146.25;100.00;52641.94;2079498;28;34345;-63
2024/02/14 01:39:48;;;;;;;12.88;9.52;;;;;;;-146.25;100.00;52656.13;2079547;28;34199;-62
2024/02/14 01:40:50;;;;;;;14.35;9.48;;;;;;;-146.25;100.00;52682.47;2079280;28;31885;-63
2024/02/14 01:41:52;;;;;;;14.93;10.23;;;;;;;-146.25;100.00;52654.09;2080285;28;20164;-62
2024/02/14 01:42:56;;;;;;;12.85;9.80;;;;;;;-146.25;100.00;52688.56;2079227;28;35540;-62
2024/02/14 01:43:59;;;;;;;12.10;9.60;;;;;;;-146.25;100.00;52637.88;2079451;28;34126;-63
2024/02/14 01:45:03;;;;;;;15.10;10.27;;;;;;;-146.25;100.00;52670.31;2078842;28;34165;-63
2024/02/14 01:46:06;;;;;;;13.05;10.02;;;;;;;-146.25;100.00;52658.16;2079218;28;37080;-62
2024/02/14 01:47:09;;;;;;;13.90;9.57;;;;;;;-146.25;100.00;52639.91;2070435;28;34664;-63
2024/02/14 01:48:12;;;;;;;13.18;9.77;;;;;;;-146.25;100.00;52633.81;2069953;28;35517;-63
2024/02/14 01:49:16;;;;;;;15.13;10.15;;;;;;;-146.25;100.00;52650.03;2070649;28;32081;-63
2024/02/14 01:50:23;;;;;;;15.32;10.32;;;;;;;-146.25;100.00;52635.84;2079482;28;32905;-64
2024/02/14 01:51:25;;;;;;;13.45;9.68;;;;;;;-146.25;100.00;52631.78;2079679;28;32427;-62
2024/02/14 01:52:27;;;;;;;15.23;9.48;;;;;;;-146.25;100.00;52666.25;2071526;28;20073;-63
2024/02/14 01:53:30;;;;;;;13.70;10.10;;;;;;;-146.25;100.00;52627.75;2070434;28;34833;-62
2024/02/14 01:54:33;;;;;;;14.07;10.30;;;;;;;-146.25;100.00;52656.13;2071311;28;33256;-64
2024/02/14 01:55:35;;;;;;;14.80;10.43;;;;;;;-146.25;100.00;52652.06;2062566;28;35660;-63
2024/02/14 01:56:38;;;;;;;12.80;10.13;;;;;;;-146.25;100.00;52656.13;2064019;28;20054;-63
2024/02/14 01:57:40;;;;;;;17.25;10.90;;;;;;;-146.25;100.00;52684.50;2070826;28;27229;-63
2024/02/14 01:58:42;;;;;;;14.35;10.07;;;;;;;-146.25;100.00;52660.19;2079779;28;31854;-63
2024/02/14 01:59:45;;;;;;;16.42;10.30;;;;;;;-146.25;100.00;52686.53;2079159;28;20459;-63
2024/02/14 02:00:47;;;;;;;18.27;10.60;;;;;;;-146.25;100.00;52631.78;2070781;28;34280;-62
2024/02/14 02:01:53;;;;;;;13.60;10.88;;;;;;;-146.25;100.00;52641.94;2071165;28;20050;-62
2024/02/14 02:02:57;;;;;;;13.60;11.32;;;;;;;-146.25;100.00;52648.00;2071016;28;20089;-62
2024/02/14 02:03:59;;;;;;;14.77;11.55;;;;;;;-146.25;100.00;52660.19;2071066;28;20098;-63
2024/02/14 02:05:01;;;;;;;16.50;11.32;;;;;;;-146.25;100.00;52662.22;2079106;28;35905;-62
2024/02/14 02:06:06;;;;;;;16.45;11.45;;;;;;;-146.25;100.00;52658.16;2078989;28;35139;-64
2024/02/14 02:07:08;;;;;;;15.20;11.00;;;;;;;-146.25;100.00;52629.75;2070747;28;33581;-63
2024/02/14 02:08:10;;;;;;;16.15;11.85;;;;;;;-146.25;100.00;52654.09;2071003;28;20043;-63
2024/02/14 02:09:12;;;;;;;17.65;11.70;;;;;;;-146.25;100.00;52672.34;2071291;28;20046;-62
2024/02/14 02:10:14;;;;;;;17.08;12.00;;;;;;;-146.25;100.00;52619.63;2070438;28;35537;-62
2024/02/14 02:11:16;;;;;;;15.32;11.48;;;;;;;-146.25;100.00;52633.81;2070733;28;25840;-62
2024/02/14 02:12:18;;;;;;;18.00;12.57;;;;;;;-146.25;100.00;52643.97;2070936;28;22825;-62
2024/02/14 02:13:20;;;;;;;18.13;12.25;;;;;;;-146.25;100.00;52662.22;2079206;28;34788;-62
2024/02/14 02:14:22;;;;;;;19.60;13.38;;;;;;;-146.25;100.00;52645.97;2070924;28;20054;-63
2024/02/14 02:15:24;;;;;;;17.63;12.77;;;;;;;-146.25;100.00;52718.97;2071544;28;35659;-63
2024/02/14 02:16:27;;;;;;;20.38;13.15;;;;;;;-146.25;100.00;52652.06;2080660;28;21393;-62
2024/02/14 02:17:28;;;;;;;19.45;13.30;;;;;;;-146.25;100.00;52627.75;2081347;28;31145;-62
2024/02/14 02:18:32;;;;;;;16.98;13.77;;;;;;;-146.25;100.00;52635.84;2080375;28;32884;-62
2024/02/14 02:19:36;;;;;;;19.67;13.63;;;;;;;-146.25;100.00;52637.88;2080675;28;35503;-62
2024/02/14 02:20:38;;;;;;;18.58;14.23;;;;;;;-146.25;100.00;52700.72;2080494;28;34260;-63
2024/02/14 02:21:43;;;;;;;18.90;13.93;;;;;;;-146.25;100.00;52615.56;2080452;28;36006;-63
2024/02/14 02:22:48;;;;;;;20.80;14.27;;;;;;;-146.25;100.00;52678.44;2071595;28;33339;-62
2024/02/14 02:23:50;;;;;;;17.35;13.30;;;;;;;-146.25;100.00;52670.31;2073178;28;32046;-62
2024/02/14 02:24:52;;;;;;;19.35;14.43;;;;;;;-146.25;100.00;52639.91;2080475;28;38124;-63
2024/02/14 02:25:54;;;;;;;19.92;14.63;;;;;;;-146.25;100.00;52639.91;2081021;28;30876;-62
2024/02/14 02:26:56;;;;;;;24.08;14.60;;;;;;;-146.25;100.00;52643.97;2080220;28;33417;-62
2024/02/14 02:27:59;;;;;;;20.60;14.50;;;;;;;-146.25;100.00;52637.88;2080742;28;37141;-62
2024/02/14 02:29:01;;;;;;;21.10;15.02;;;;;;;-146.25;100.00;52688.56;2080806;28;20898;-63
2024/02/14 02:30:13;;;;;;;21.05;15.65;;;;;;;-146.25;100.00;52635.84;2080610;28;34037;-62
2024/02/14 02:31:15;;;;;;;21.23;14.30;;;;;;;-146.25;100.00;52648.00;2080376;28;34236;-62
2024/02/14 02:32:17;;;;;;;21.13;14.90;;;;;;;-146.25;100.00;52652.06;2081072;28;32233;-62
2024/02/14 02:33:21;;;;;;;20.10;15.18;;;;;;;-146.25;100.00;52652.06;2080393;28;35245;-62
2024/02/14 02:34:23;;;;;;;22.45;15.88;;;;;;;-146.25;100.00;52639.91;2081385;28;20985;-62
2024/02/14 02:35:25;;;;;;;18.95;15.43;;;;;;;-146.25;100.00;52637.88;2079916;28;36278;-62
2024/02/14 02:36:29;;;;;;;21.60;15.88;;;;;;;-146.25;100.00;52652.06;2080980;28;32716;-62
2024/02/14 02:37:34;;;;;;;25.00;15.98;;;;;;;-146.25;100.00;52672.34;2080100;28;34643;-64
2024/02/14 02:38:38;;;;;;;20.58;16.13;;;;;;;-146.25;100.00;52666.25;2080496;28;35157;-61
2024/02/14 02:39:40;;;;;;;21.00;16.10;;;;;;;-146.25;100.00;52611.50;2080911;28;20034;-63
2024/02/14 02:40:43;;;;;;;24.65;16.42;;;;;;;-146.25;100.00;52668.28;2080777;28;36257;-64
2024/02/14 02:41:47;;;;;;;22.30;16.60;;;;;;;-146.25;100.00;52627.75;2080134;28;37021;-64
2024/02/14 02:42:51;;;;;;;24.73;17.45;;;;;;;-146.25;100.00;52654.09;2081216;28;20148;-64
2024/02/14 02:43:54;;;;;;;25.58;17.50;;;;;;;-146.25;100.00;52643.97;2080300;28;37325;-64
2024/02/14 02:44:56;;;;;;;23.67;17.27;;;;;;;-146.25;100.00;52684.50;2080052;28;33702;-64
2024/02/14 02:46:00;;;;;;;23.77;17.73;;;;;;;-146.25;100.00;52627.75;2080616;28;32487;-62
2024/02/14 02:47:02;;;;;;;26.25;17.73;;;;;;;-146.25;100.00;52686.53;2080421;28;37540;-63
2024/02/14 02:48:04;;;;;;;24.17;17.25;;;;;;;-146.25;100.00;52643.97;2080700;28;20069;-63
2024/02/14 02:49:08;;;;;;;24.02;17.98;;;;;;;-146.25;100.00;52645.97;2080307;28;39513;-62
2024/02/14 02:50:10;;;;;;;24.10;17.55;;;;;;;-146.25;100.00;52652.06;2080113;28;32673;-62
2024/02/14 02:51:11;;;;;;;23.70;17.52;;;;;;;-146.25;100.00;52660.19;2080318;28;36433;-62
2024/02/14 02:52:13;;;;;;;22.48;18.08;;;;;;;-146.25;100.00;52686.53;2080492;28;33839;-63
2024/02/14 02:53:16;;;;;;;27.42;18.33;;;;;;;-146.25;100.00;52635.84;2081149;28;20030;-62
2024/02/14 02:54:18;;;;;;;24.88;18.63;;;;;;;-146.25;100.00;52676.41;2080408;28;34079;-63
2024/02/14 02:55:20;;;;;;;25.67;17.65;;;;;;;-146.25;100.00;52648.00;2080439;28;35462;-62
2024/02/14 02:56:22;;;;;;;27.48;18.90;;;;;;;-146.25;100.00;52639.91;2080759;28;20161;-63
2024/02/14 02:57:29;;;;;;;26.83;18.40;;;;;;;-146.25;100.00;52648.00;2080902;28;20164;-63
2024/02/14 02:58:31;;;;;;;24.67;19.35;;;;;;;-146.25;100.00;52652.06;2079938;28;34668;-63
2024/02/14 02:59:35;;;;;;;23.92;19.08;;;;;;;-146.25;100.00;52631.78;2081350;28;20907;-63
2024/02/14 03:00:39;;;;;;;25.73;19.88;;;;;;;-146.25;100.00;52643.97;2076797;28;33593;-62
2024/02/14 03:01:41;;;;;;;22.45;19.05;;;;;;;-146.25;100.00;52645.97;2072499;28;32427;-63
2024/02/14 03:02:44;;;;;;;28.23;20.05;;;;;;;-146.25;100.00;52670.31;2072204;28;34242;-64
2024/02/14 03:03:46;;;;;;;28.13;20.88;;;;;;;-146.25;100.00;52682.47;2071794;28;36766;-63
2024/02/14 03:04:48;;;;;;;26.33;20.10;;;;;;;-146.25;100.00;52666.25;2072738;28;20996;-63
2024/02/14 03:05:55;;;;;;;23.95;19.58;;;;;;;-146.25;100.00;52656.13;2072280;28;36786;-62
2024/02/14 03:06:58;;;;;;;27.30;19.77;;;;;;;-146.25;100.00;52688.56;2071931;28;31796;-63
2024/02/14 03:08:00;;;;;;;27.20;19.98;;;;;;;-146.25;100.00;52660.19;2072097;28;34869;-62
2024/02/14 03:09:05;;;;;;;28.33;19.90;;;;;;;-146.25;100.00;52643.97;2080587;28;20991;-63
2024/02/14 03:10:08;;;;;;;26.27;19.45;;;;;;;-146.25;100.00;52629.75;2081162;28;20053;-63
2024/02/14 03:11:10;;;;;;;28.48;21.70;;;;;;;-146.25;100.00;52668.28;2080758;28;35736;-62
2024/02/14 03:12:15;;;;;;;29.02;20.85;;;;;;;-146.25;100.00;52635.84;2080122;28;35266;-62
2024/02/14 03:13:20;;;;;;;27.85;20.58;;;;;;;-146.25;100.00;52639.91;2080794;28;30830;-62
2024/02/14 03:14:21;;;;;;;25.85;21.08;;;;;;;-146.25;100.00;52656.13;2080027;28;36723;-63
2024/02/14 03:15:25;;;;;;;28.58;20.95;;;;;;;-146.25;100.00;52668.28;2080656;28;20143;-62
2024/02/14 03:16:27;;;;;;;28.08;21.00;;;;;;;-146.25;100.00;52656.13;2079872;28;32260;-62
2024/02/14 03:17:29;;;;;;;26.70;20.67;;;;;;;-146.25;100.00;52658.16;2080249;28;28022;-62
2024/02/14 03:18:30;;;;;;;26.63;20.48;;;;;;;-146.25;100.00;52684.50;2080190;28;27266;-63
2024/02/14 03:19:38;;;;;;;28.88;21.02;;;;;;;-146.25;100.00;52639.91;2080233;28;34730;-63
2024/02/14 03:20:39;;;;;;;27.38;21.02;;;;;;;-146.25;100.00;52672.34;2081010;28;20049;-63
2024/02/14 03:21:43;;;;;;;24.95;20.77;;;;;;;-146.25;100.00;52650.03;2080009;28;35238;-63
2024/02/14 03:22:45;;;;;;;29.27;20.80;;;;;;;-146.25;100.00;52629.75;2080236;28;32606;-63
2024/02/14 03:23:47;;;;;;;25.48;21.25;;;;;;;-146.25;100.00;52627.75;2080107;28;34753;-63
2024/02/14 03:24:51;;;;;;;26.98;21.25;;;;;;;-146.25;100.00;52660.19;2080606;28;35937;-63
2024/02/14 03:25:53;;;;;;;28.30;22.20;;;;;;;-146.25;100.00;52621.66;2079843;28;37063;-63
2024/02/14 03:26:55;;;;;;;27.65;21.38;;;;;;;-146.25;100.00;52639.91;2071457;28;35442;-62
2024/02/14 03:28:00;;;;;;;27.98;21.15;;;;;;;-146.25;100.00;52674.38;2072101;28;34846;-61
2024/02/14 03:29:06;;;;;;;27.73;22.30;;;;;;;-146.25;100.00;52641.94;2080372;28;20030;-61
2024/02/14 03:30:08;;;;;;;28.67;22.20;;;;;;;-146.25;100.00;52660.19;2071436;28;26954;-62
2024/02/14 03:31:14;;;;;;;28.73;21.73;;;;;;;-146.25;100.00;52668.28;2063836;28;32575;-62
2024/02/14 03:32:16;;;;;;;31.02;23.02;;;;;;;-146.25;100.00;52633.81;2072101;28;34384;-62
2024/02/14 03:33:17;;;;;;;27.25;20.52;;;;;;;-146.25;100.00;52662.22;2080345;28;32734;-62
2024/02/14 03:34:21;;;;;;;30.58;21.58;;;;;;;-146.25;100.00;52692.63;2080704;28;20176;-62
2024/02/14 03:35:22;;;;;;;29.23;22.67;;;;;;;-146.25;100.00;52603.41;2080244;28;33568;-61
2024/02/14 03:36:28;;;;;;;31.42;21.60;;;;;;;-146.25;100.00;52641.94;2080260;28;32505;-64
2024/02/14 03:37:30;;;;;;;26.23;21.42;;;;;;;-146.25;100.00;52641.94;2080385;28;32838;-62
2024/02/14 03:38:31;;;;;;;29.45;21.10;;;;;;;-146.25;100.00;52648.00;2080013;28;31675;-64
2024/02/14 03:39:33;;;;;;;30.83;23.05;;;;;;;-146.25;100.00;52643.97;2080908;28;20956;-64
2024/02/14 03:40:37;;;;;;;29.42;22.05;;;;;;;-146.25;100.00;52643.97;2080224;28;37157;-61
2024/02/14 03:41:39;;;;;;;27.27;21.92;;;;;;;-146.25;100.00;52631.78;2080092;28;34598;-61
2024/02/14 03:42:40;;;;;;;28.13;22.92;;;;;;;-146.25;100.00;52631.78;2080152;28;32019;-62
2024/02/14 03:43:43;;;;;;;29.67;22.63;;;;;;;-146.25;100.00;52643.97;2080124;28;33288;-62
2024/02/14 03:44:45;;;;;;;30.80;22.58;;;;;;;-146.25;100.00;52645.97;2079949;28;32326;-61
2024/02/14 03:45:54;;;;;;;29.08;22.92;;;;;;;-146.25;100.00;52660.19;2071511;28;35020;-62
2024/02/14 03:46:56;;;;;;;33.70;23.90;;;;;;;-146.25;100.00;52631.78;2073097;28;32156;-63
2024/02/14 03:47:58;;;;;;;30.85;23.35;;;;;;;-146.25;100.00;52627.75;2080111;28;36407;-62
2024/02/14 03:49:00;;;;;;;34.95;23.73;;;;;;;-146.25;100.00;52648.00;2080222;28;31991;-62
2024/02/14 03:50:04;;;;;;;32.92;22.95;;;;;;;-146.25;100.00;52645.97;2079744;28;33402;-63
2024/02/14 03:51:06;;;;;;;31.90;23.60;;;;;;;-146.25;100.00;52672.34;2079726;28;35999;-63
2024/02/14 03:52:10;;;;;;;32.60;24.52;;;;;;;-146.25;100.00;52652.06;2071534;28;23326;-65
2024/02/14 03:53:12;;;;;;;31.40;23.90;;;;;;;-146.25;100.00;52639.91;2071415;28;36807;-62
2024/02/14 03:54:13;;;;;;;31.73;23.15;;;;;;;-146.25;100.00;52670.31;2080237;28;34132;-63
2024/02/14 03:55:18;;;;;;;30.75;23.70;;;;;;;-146.25;100.00;52674.38;2080011;28;33921;-64
2024/02/14 03:56:20;;;;;;;36.97;24.30;;;;;;;-146.25;100.00;52674.38;2079574;28;35835;-64
2024/02/14 03:57:22;;;;;;;33.25;25.58;;;;;;;-146.25;100.00;52650.03;2080215;28;31229;-64
2024/02/14 03:58:24;;;;;;;34.35;23.75;;;;;;;-146.25;100.00;52660.19;2079844;28;38322;-64
2024/02/14 03:59:26;;;;;;;32.67;23.95;;;;;;;-146.25;100.00;52662.22;2079902;28;34475;-64
2024/02/14 04:00:29;;;;;;;34.33;24.35;;;;;;;-146.25;100.00;52635.84;2079652;28;31642;-64
2024/02/14 04:01:31;;;;;;;35.50;23.70;;;;;;;-146.25;100.00;52670.31;2079403;28;36859;-64
2024/02/14 04:02:33;;;;;;;30.85;22.98;;;;;;;-146.25;100.00;52672.34;2080041;28;30667;-63
2024/02/14 04:03:36;;;;;;;35.33;24.10;;;;;;;-146.25;100.00;52668.28;2079789;28;33236;-63
2024/02/14 04:04:39;;;;;;;38.20;24.40;;;;;;;-146.25;100.00;52666.25;2080115;28;33952;-64
2024/02/14 04:05:41;;;;;;;33.88;23.13;;;;;;;-146.25;100.00;52645.97;2079762;28;35509;-63
2024/02/14 04:06:45;;;;;;;36.20;25.13;;;;;;;-146.25;100.00;52629.75;2080012;28;37379;-64
2024/02/14 04:07:51;;;;;;;36.00;24.88;;;;;;;-146.25;100.00;52639.91;2080348;28;20046;-64
2024/02/14 04:08:53;;;;;;;37.65;25.08;;;;;;;-146.25;100.00;52660.19;2080483;28;33176;-64
2024/02/14 04:09:57;;;;;;;33.38;23.55;;;;;;;-146.25;100.00;52615.56;2079789;28;37515;-64
2024/02/14 04:10:59;;;;;;;36.25;25.10;;;;;;;-146.25;100.00;52643.97;2079900;28;31853;-64
2024/02/14 04:12:01;;;;;;;35.85;25.15;;;;;;;-146.25;100.00;52660.19;2080476;28;20816;-64
2024/02/14 04:13:06;;;;;;;34.40;24.33;;;;;;;-146.25;100.00;52643.97;2079928;28;33847;-63
2024/02/14 04:14:08;;;;;;;35.70;25.42;;;;;;;-146.25;100.00;52605.44;2080195;28;31537;-64
2024/02/14 04:15:10;;;;;;;36.55;25.35;;;;;;;-146.25;100.00;52656.13;2079394;28;34170;-64
2024/02/14 04:16:12;;;;;;;38.17;26.02;;;;;;;-146.25;100.00;52668.28;2079743;28;34780;-63
2024/02/14 04:17:14;;;;;;;38.03;26.40;;;;;;;-146.25;100.00;52684.50;2080464;28;20160;-64
2024/02/14 04:18:17;;;;;;;36.90;25.15;;;;;;;-146.25;100.00;52696.69;2079906;28;38132;-64
2024/02/14 04:19:20;;;;;;;33.97;24.38;;;;;;;-146.25;100.00;52637.88;2079573;28;32633;-63
2024/02/14 04:20:21;;;;;;;38.03;26.23;;;;;;;-146.25;100.00;52621.66;2080251;28;20073;-64
2024/02/14 04:21:23;;;;;;;37.95;25.95;;;;;;;-146.25;100.00;52678.44;2070873;28;35418;-64
2024/02/14 04:22:25;;;;;;;37.95;24.85;;;;;;;-146.25;100.00;52668.28;2071141;28;34711;-63
2024/02/14 04:23:27;;;;;;;35.50;25.58;;;;;;;-146.25;100.00;52652.06;2079508;28;33610;-64
2024/02/14 04:24:29;;;;;;;40.83;26.48;;;;;;;-146.25;100.00;52613.53;2079984;28;35822;-64
2024/02/14 04:25:31;;;;;;;39.97;25.13;;;;;;;-146.25;100.00;52648.00;2079562;28;32937;-64
2024/02/14 04:26:34;;;;;;;36.80;26.17;;;;;;;-146.25;100.00;52648.00;2080686;28;20959;-63
2024/02/14 04:27:36;;;;;;;40.65;25.95;;;;;;;-146.25;100.00;52676.41;2079568;28;34294;-63
2024/02/14 04:28:40;;;;;;;39.03;26.75;;;;;;;-146.25;100.00;52652.06;2079989;28;33553;-63
2024/02/14 04:29:48;;;;;;;38.00;25.58;;;;;;;-146.25;100.00;52666.25;2079819;28;20147;-62
2024/02/14 04:30:50;;;;;;;37.58;25.90;;;;;;;-146.25;100.00;52674.38;2080223;28;36377;-63
2024/02/14 04:31:52;;;;;;;40.28;26.48;;;;;;;-146.25;100.00;52682.47;2079949;28;33369;-62
2024/02/14 04:32:54;;;;;;;43.17;27.13;;;;;;;-146.25;100.00;52668.28;2080110;28;33011;-63
2024/02/14 04:33:56;;;;;;;41.40;26.70;;;;;;;-146.25;100.00;52660.19;2079563;28;35960;-62
2024/02/14 04:35:01;;;;;;;40.78;25.80;;;;;;;-146.25;100.00;52660.19;2079331;28;33675;-63
2024/02/14 04:36:05;;;;;;;39.67;25.40;;;;;;;-146.25;100.00;52660.19;2079729;28;21038;-62
2024/02/14 04:37:12;;;;;;;41.72;26.23;;;;;;;-146.25;100.00;52643.97;2079451;28;34988;-62
2024/02/14 04:38:14;;;;;;;38.17;26.38;;;;;;;-146.25;100.00;52641.94;2079557;28;31692;-63
2024/02/14 04:39:16;;;;;;;41.97;26.70;;;;;;;-146.25;100.00;52676.41;2079799;28;36605;-62
2024/02/14 04:40:18;;;;;;;40.15;26.30;;;;;;;-146.25;100.00;52660.19;2079508;28;34313;-62